Sharyland, Texas
Current Conditions -  °F | °C
As of 9:53 AM on Monday 22 Dec 2014 (Local Time) from KMFE Reporting Station
Overcast Overcast  
Wind Chill: 62°   Ceiling: 500
Heat Index: 62°   Visibility: 10mi
Dew Point: 60°   Wind: 5mph
Humidity: 93%   Direction: 210°SSW
Pressure: 29.81"   Gusts: NA
Location:  26.2167°N, 98.325°W
Report Text: KMFE 221553Z 21004KT 10SM OVC005 17/16 A2981 RMK AO2 SLP092 T01670156
Loading
Personal Weather Stations






























Interactive Weather Map New forecast layout! Learn more

10-Day Weather Forecast

Advertisements
Track Severe Weather on mobile